sensor_id;sensor_type;location;lat;lon;timestamp;noise_LAeq;noise_LA_min;noise_LA_max;noise_LA01;noise_LA95
72415;Laerm;60995;52.154;4.498;2023-07-22T00:00:53;44.32;36.25;58.51;;
72415;Laerm;60995;52.154;4.498;2023-07-22T00:03:09;43.53;37.17;52.64;;
72415;Laerm;60995;52.154;4.498;2023-07-22T00:05:25;43.97;37.30;53.00;;
72415;Laerm;60995;52.154;4.498;2023-07-22T00:07:42;42.73;36.74;60.58;;
72415;Laerm;60995;52.154;4.498;2023-07-22T00:09:58;42.23;35.75;51.09;;
72415;Laerm;60995;52.154;4.498;2023-07-22T00:12:14;42.46;36.39;50.07;;
72415;Laerm;60995;52.154;4.498;2023-07-22T00:14:31;40.87;35.96;48.34;;
72415;Laerm;60995;52.154;4.498;2023-07-22T00:16:47;42.46;36.38;54.09;;
72415;Laerm;60995;52.154;4.498;2023-07-22T00:19:03;43.79;36.41;54.67;;
72415;Laerm;60995;52.154;4.498;2023-07-22T00:21:20;42.85;36.52;52.82;;
72415;Laerm;60995;52.154;4.498;2023-07-22T00:23:36;42.87;36.25;50.63;;
72415;Laerm;60995;52.154;4.498;2023-07-22T00:25:52;41.81;35.62;54.18;;
72415;Laerm;60995;52.154;4.498;2023-07-22T00:28:09;40.90;36.24;49.60;;
72415;Laerm;60995;52.154;4.498;2023-07-22T00:30:26;42.10;36.25;53.33;;
72415;Laerm;60995;52.154;4.498;2023-07-22T00:32:43;41.72;36.11;51.71;;
72415;Laerm;60995;52.154;4.498;2023-07-22T00:34:59;43.46;36.20;53.66;;
72415;Laerm;60995;52.154;4.498;2023-07-22T00:37:16;40.81;35.79;48.70;;
72415;Laerm;60995;52.154;4.498;2023-07-22T00:39:32;42.75;36.32;51.71;;
72415;Laerm;60995;52.154;4.498;2023-07-22T00:41:49;42.93;36.58;54.71;;
72415;Laerm;60995;52.154;4.498;2023-07-22T00:44:05;41.56;36.05;53.77;;
72415;Laerm;60995;52.154;4.498;2023-07-22T00:46:21;52.54;36.12;66.78;;
72415;Laerm;60995;52.154;4.498;2023-07-22T00:48:38;51.96;38.70;70.68;;
72415;Laerm;60995;52.154;4.498;2023-07-22T00:50:54;48.59;36.56;63.31;;
72415;Laerm;60995;52.154;4.498;2023-07-22T00:53:12;42.74;36.57;55.54;;
72415;Laerm;60995;52.154;4.498;2023-07-22T00:55:28;42.50;36.60;56.81;;
72415;Laerm;60995;52.154;4.498;2023-07-22T00:57:45;42.54;36.50;68.67;;
72415;Laerm;60995;52.154;4.498;2023-07-22T01:00:01;41.89;36.22;59.30;;
72415;Laerm;60995;52.154;4.498;2023-07-22T01:02:21;41.55;36.61;49.99;;
72415;Laerm;60995;52.154;4.498;2023-07-22T01:04:38;43.30;36.34;57.58;;
72415;Laerm;60995;52.154;4.498;2023-07-22T01:06:54;41.81;36.55;52.76;;
72415;Laerm;60995;52.154;4.498;2023-07-22T01:09:11;43.79;36.57;57.06;;
72415;Laerm;60995;52.154;4.498;2023-07-22T01:11:27;42.57;36.61;49.47;;
72415;Laerm;60995;52.154;4.498;2023-07-22T01:13:44;42.36;36.59;64.39;;
72415;Laerm;60995;52.154;4.498;2023-07-22T01:16:00;41.98;36.48;55.42;;
72415;Laerm;60995;52.154;4.498;2023-07-22T01:18:17;41.73;36.49;50.57;;
72415;Laerm;60995;52.154;4.498;2023-07-22T01:20:35;43.19;36.51;58.22;;
72415;Laerm;60995;52.154;4.498;2023-07-22T01:22:52;42.88;36.52;62.89;;
72415;Laerm;60995;52.154;4.498;2023-07-22T01:25:09;41.99;36.18;54.63;;
72415;Laerm;60995;52.154;4.498;2023-07-22T01:27:29;41.31;36.49;48.99;;
72415;Laerm;60995;52.154;4.498;2023-07-22T01:29:45;42.60;36.47;52.72;;
72415;Laerm;60995;52.154;4.498;2023-07-22T01:32:02;42.73;36.75;50.45;;
72415;Laerm;60995;52.154;4.498;2023-07-22T01:34:19;42.01;36.13;54.15;;
72415;Laerm;60995;52.154;4.498;2023-07-22T01:36:36;42.25;36.17;53.34;;
72415;Laerm;60995;52.154;4.498;2023-07-22T01:38:52;42.57;36.68;56.83;;
72415;Laerm;60995;52.154;4.498;2023-07-22T01:41:09;41.52;36.52;51.16;;
72415;Laerm;60995;52.154;4.498;2023-07-22T01:43:25;41.07;35.89;50.16;;
72415;Laerm;60995;52.154;4.498;2023-07-22T01:45:41;41.18;36.07;51.35;;
72415;Laerm;60995;52.154;4.498;2023-07-22T01:47:58;43.42;36.39;57.98;;
72415;Laerm;60995;52.154;4.498;2023-07-22T01:50:14;42.57;36.39;55.98;;
72415;Laerm;60995;52.154;4.498;2023-07-22T01:52:31;41.58;36.15;49.89;;
72415;Laerm;60995;52.154;4.498;2023-07-22T01:54:47;43.11;36.91;56.19;;
72415;Laerm;60995;52.154;4.498;2023-07-22T01:57:07;43.35;36.80;55.49;;
72415;Laerm;60995;52.154;4.498;2023-07-22T01:59:24;42.40;37.18;49.70;;
72415;Laerm;60995;52.154;4.498;2023-07-22T02:01:44;42.29;36.61;53.25;;
72415;Laerm;60995;52.154;4.498;2023-07-22T02:04:03;42.29;36.40;54.09;;
72415;Laerm;60995;52.154;4.498;2023-07-22T02:06:23;41.24;36.70;48.99;;
72415;Laerm;60995;52.154;4.498;2023-07-22T02:08:40;43.27;37.02;56.97;;
72415;Laerm;60995;52.154;4.498;2023-07-22T02:11:05;41.70;36.09;54.04;;
72415;Laerm;60995;52.154;4.498;2023-07-22T02:13:22;42.13;37.21;49.84;;
72415;Laerm;60995;52.154;4.498;2023-07-22T02:15:38;41.98;36.60;52.09;;
72415;Laerm;60995;52.154;4.498;2023-07-22T02:17:56;43.35;36.11;58.51;;
72415;Laerm;60995;52.154;4.498;2023-07-22T02:20:13;45.20;36.08;64.51;;
72415;Laerm;60995;52.154;4.498;2023-07-22T02:22:29;43.02;37.08;51.98;;
72415;Laerm;60995;52.154;4.498;2023-07-22T02:24:45;41.45;36.28;48.97;;
72415;Laerm;60995;52.154;4.498;2023-07-22T02:27:01;41.28;36.62;49.63;;
72415;Laerm;60995;52.154;4.498;2023-07-22T02:29:18;42.67;36.36;57.00;;
72415;Laerm;60995;52.154;4.498;2023-07-22T02:31:35;42.13;36.84;48.89;;
72415;Laerm;60995;52.154;4.498;2023-07-22T02:33:52;43.04;36.72;52.18;;
72415;Laerm;60995;52.154;4.498;2023-07-22T02:36:08;43.17;36.44;61.75;;
72415;Laerm;60995;52.154;4.498;2023-07-22T02:38:25;42.15;36.97;49.12;;
72415;Laerm;60995;52.154;4.498;2023-07-22T02:40:41;42.77;37.25;51.37;;
72415;Laerm;60995;52.154;4.498;2023-07-22T02:42:57;43.51;37.89;59.76;;
72415;Laerm;60995;52.154;4.498;2023-07-22T02:45:13;41.78;36.79;52.38;;
72415;Laerm;60995;52.154;4.498;2023-07-22T02:47:32;42.97;36.57;59.42;;
72415;Laerm;60995;52.154;4.498;2023-07-22T02:49:49;44.68;36.95;63.44;;
72415;Laerm;60995;52.154;4.498;2023-07-22T02:52:06;42.99;36.93;58.72;;
72415;Laerm;60995;52.154;4.498;2023-07-22T02:54:22;42.68;37.01;62.92;;
72415;Laerm;60995;52.154;4.498;2023-07-22T02:56:39;42.55;36.92;60.14;;
72415;Laerm;60995;52.154;4.498;2023-07-22T02:58:55;43.57;36.82;63.49;;
72415;Laerm;60995;52.154;4.498;2023-07-22T03:01:11;42.67;36.69;60.93;;
72415;Laerm;60995;52.154;4.498;2023-07-22T03:03:28;44.56;36.64;62.80;;
72415;Laerm;60995;52.154;4.498;2023-07-22T03:05:44;45.67;37.94;63.92;;
72415;Laerm;60995;52.154;4.498;2023-07-22T03:08:01;43.47;36.54;63.21;;
72415;Laerm;60995;52.154;4.498;2023-07-22T03:10:17;46.15;37.36;68.71;;
72415;Laerm;60995;52.154;4.498;2023-07-22T03:12:34;42.20;36.59;54.51;;
72415;Laerm;60995;52.154;4.498;2023-07-22T03:14:51;47.86;36.43;71.43;;
72415;Laerm;60995;52.154;4.498;2023-07-22T03:17:07;43.26;36.51;60.99;;
72415;Laerm;60995;52.154;4.498;2023-07-22T03:19:24;47.06;37.51;69.20;;
72415;Laerm;60995;52.154;4.498;2023-07-22T03:21:40;43.58;36.87;58.91;;
72415;Laerm;60995;52.154;4.498;2023-07-22T03:23:57;44.57;37.55;63.31;;
72415;Laerm;60995;52.154;4.498;2023-07-22T03:26:13;44.56;37.44;55.12;;
72415;Laerm;60995;52.154;4.498;2023-07-22T03:28:29;45.13;37.56;62.99;;
72415;Laerm;60995;52.154;4.498;2023-07-22T03:30:46;43.27;37.26;55.90;;
72415;Laerm;60995;52.154;4.498;2023-07-22T03:33:02;43.80;37.40;64.09;;
72415;Laerm;60995;52.154;4.498;2023-07-22T03:35:19;43.30;37.26;61.95;;
72415;Laerm;60995;52.154;4.498;2023-07-22T03:37:35;43.97;37.45;61.44;;
72415;Laerm;60995;52.154;4.498;2023-07-22T03:39:55;42.05;36.92;60.55;;
72415;Laerm;60995;52.154;4.498;2023-07-22T03:42:11;45.55;37.55;63.04;;
72415;Laerm;60995;52.154;4.498;2023-07-22T03:44:27;51.03;37.48;68.96;;
72415;Laerm;60995;52.154;4.498;2023-07-22T03:46:45;45.94;37.67;63.90;;
72415;Laerm;60995;52.154;4.498;2023-07-22T03:49:01;44.69;37.38;59.01;;
72415;Laerm;60995;52.154;4.498;2023-07-22T03:51:17;45.22;37.66;56.97;;
72415;Laerm;60995;52.154;4.498;2023-07-22T03:53:33;47.18;37.46;65.83;;
72415;Laerm;60995;52.154;4.498;2023-07-22T03:55:50;48.99;37.59;64.84;;
72415;Laerm;60995;52.154;4.498;2023-07-22T03:58:06;43.34;37.48;58.39;;
72415;Laerm;60995;52.154;4.498;2023-07-22T04:00:22;43.27;37.44;55.56;;
72415;Laerm;60995;52.154;4.498;2023-07-22T04:02:39;45.44;37.19;63.37;;
72415;Laerm;60995;52.154;4.498;2023-07-22T04:04:57;47.03;37.40;71.35;;
72415;Laerm;60995;52.154;4.498;2023-07-22T04:07:13;46.00;37.77;60.40;;
72415;Laerm;60995;52.154;4.498;2023-07-22T04:09:30;47.10;36.95;67.72;;
72415;Laerm;60995;52.154;4.498;2023-07-22T04:11:46;42.13;37.11;54.09;;
72415;Laerm;60995;52.154;4.498;2023-07-22T04:14:02;42.84;37.01;59.38;;
72415;Laerm;60995;52.154;4.498;2023-07-22T04:16:19;44.32;37.80;58.93;;
72415;Laerm;60995;52.154;4.498;2023-07-22T04:18:35;46.19;39.80;62.88;;
72415;Laerm;60995;52.154;4.498;2023-07-22T04:20:56;44.17;38.59;56.98;;
72415;Laerm;60995;52.154;4.498;2023-07-22T04:23:14;45.06;39.00;54.57;;
72415;Laerm;60995;52.154;4.498;2023-07-22T04:25:30;44.75;39.28;62.72;;
72415;Laerm;60995;52.154;4.498;2023-07-22T04:27:46;46.96;39.27;63.50;;
72415;Laerm;60995;52.154;4.498;2023-07-22T04:30:03;52.85;39.65;76.24;;
72415;Laerm;60995;52.154;4.498;2023-07-22T04:32:19;48.42;39.94;67.16;;
72415;Laerm;60995;52.154;4.498;2023-07-22T04:34:35;46.27;40.43;62.48;;
72415;Laerm;60995;52.154;4.498;2023-07-22T04:36:52;48.60;39.49;63.11;;
72415;Laerm;60995;52.154;4.498;2023-07-22T04:39:08;47.86;40.17;63.67;;
72415;Laerm;60995;52.154;4.498;2023-07-22T04:41:24;48.26;40.96;67.91;;
72415;Laerm;60995;52.154;4.498;2023-07-22T04:43:41;49.27;41.24;68.95;;
72415;Laerm;60995;52.154;4.498;2023-07-22T04:45:57;46.45;40.41;62.55;;
72415;Laerm;60995;52.154;4.498;2023-07-22T04:48:20;46.96;40.90;60.09;;
72415;Laerm;60995;52.154;4.498;2023-07-22T04:50:38;46.16;40.05;57.30;;
72415;Laerm;60995;52.154;4.498;2023-07-22T04:52:56;47.41;40.33;68.87;;
72415;Laerm;60995;52.154;4.498;2023-07-22T04:55:14;48.30;40.92;56.79;;
72415;Laerm;60995;52.154;4.498;2023-07-22T04:57:30;47.37;40.74;55.73;;
72415;Laerm;60995;52.154;4.498;2023-07-22T04:59:46;47.08;40.72;63.04;;
72415;Laerm;60995;52.154;4.498;2023-07-22T05:02:02;48.05;41.60;59.25;;
72415;Laerm;60995;52.154;4.498;2023-07-22T05:04:19;46.94;40.79;59.24;;
72415;Laerm;60995;52.154;4.498;2023-07-22T05:06:35;47.78;41.53;63.92;;
72415;Laerm;60995;52.154;4.498;2023-07-22T05:08:52;47.11;41.18;63.42;;
72415;Laerm;60995;52.154;4.498;2023-07-22T05:11:08;47.04;40.66;62.39;;
72415;Laerm;60995;52.154;4.498;2023-07-22T05:13:24;46.90;41.10;58.25;;
72415;Laerm;60995;52.154;4.498;2023-07-22T05:15:41;48.24;41.70;62.60;;
72415;Laerm;60995;52.154;4.498;2023-07-22T05:17:57;48.50;41.50;63.56;;
72415;Laerm;60995;52.154;4.498;2023-07-22T05:20:13;47.75;40.88;63.29;;
72415;Laerm;60995;52.154;4.498;2023-07-22T05:22:29;48.47;42.57;60.14;;
72415;Laerm;60995;52.154;4.498;2023-07-22T05:24:46;48.39;41.57;58.34;;
72415;Laerm;60995;52.154;4.498;2023-07-22T05:27:02;46.61;41.76;57.87;;
72415;Laerm;60995;52.154;4.498;2023-07-22T05:29:19;48.16;41.45;62.30;;
72415;Laerm;60995;52.154;4.498;2023-07-22T05:31:37;48.23;41.97;62.65;;
72415;Laerm;60995;52.154;4.498;2023-07-22T05:33:53;48.93;41.77;67.36;;
72415;Laerm;60995;52.154;4.498;2023-07-22T05:36:09;47.69;41.68;61.93;;
72415;Laerm;60995;52.154;4.498;2023-07-22T05:38:25;47.58;40.72;60.75;;
72415;Laerm;60995;52.154;4.498;2023-07-22T05:40:43;48.72;41.59;63.14;;
72415;Laerm;60995;52.154;4.498;2023-07-22T05:42:59;49.10;42.42;61.53;;
72415;Laerm;60995;52.154;4.498;2023-07-22T05:45:15;51.50;41.26;70.06;;
72415;Laerm;60995;52.154;4.498;2023-07-22T05:47:32;47.85;41.80;63.87;;
72415;Laerm;60995;52.154;4.498;2023-07-22T05:49:48;46.26;39.95;61.96;;
72415;Laerm;60995;52.154;4.498;2023-07-22T05:52:05;50.34;40.67;71.09;;
72415;Laerm;60995;52.154;4.498;2023-07-22T05:54:22;48.07;40.56;63.17;;
72415;Laerm;60995;52.154;4.498;2023-07-22T05:56:38;47.43;40.58;59.89;;
72415;Laerm;60995;52.154;4.498;2023-07-22T05:58:54;46.91;40.43;61.20;;
72415;Laerm;60995;52.154;4.498;2023-07-22T06:01:11;50.03;42.57;62.72;;
72415;Laerm;60995;52.154;4.498;2023-07-22T06:03:28;48.07;40.24;64.69;;
72415;Laerm;60995;52.154;4.498;2023-07-22T06:05:45;52.21;40.85;62.40;;
72415;Laerm;60995;52.154;4.498;2023-07-22T06:08:01;50.25;40.62;62.93;;
72415;Laerm;60995;52.154;4.498;2023-07-22T06:10:18;48.42;40.16;65.29;;
72415;Laerm;60995;52.154;4.498;2023-07-22T06:12:35;50.50;42.21;64.57;;
72415;Laerm;60995;52.154;4.498;2023-07-22T06:14:51;48.74;41.78;60.04;;
72415;Laerm;60995;52.154;4.498;2023-07-22T06:17:07;51.68;40.37;61.17;;
72415;Laerm;60995;52.154;4.498;2023-07-22T06:19:24;49.54;40.56;62.69;;
72415;Laerm;60995;52.154;4.498;2023-07-22T06:21:40;53.29;41.48;62.74;;
72415;Laerm;60995;52.154;4.498;2023-07-22T06:23:56;45.79;40.14;53.10;;
72415;Laerm;60995;52.154;4.498;2023-07-22T06:26:13;46.52;39.85;53.36;;
72415;Laerm;60995;52.154;4.498;2023-07-22T06:28:29;50.08;40.92;61.01;;
72415;Laerm;60995;52.154;4.498;2023-07-22T06:30:45;47.73;40.74;55.91;;
72415;Laerm;60995;52.154;4.498;2023-07-22T06:33:02;46.96;41.19;56.39;;
72415;Laerm;60995;52.154;4.498;2023-07-22T06:35:18;48.13;40.71;60.38;;
72415;Laerm;60995;52.154;4.498;2023-07-22T06:37:34;47.69;41.69;57.86;;
72415;Laerm;60995;52.154;4.498;2023-07-22T06:39:51;48.82;41.49;65.18;;
72415;Laerm;60995;52.154;4.498;2023-07-22T06:42:07;48.88;41.96;61.20;;
72415;Laerm;60995;52.154;4.498;2023-07-22T06:44:24;49.86;41.57;61.89;;
72415;Laerm;60995;52.154;4.498;2023-07-22T06:46:40;52.04;42.46;63.70;;
72415;Laerm;60995;52.154;4.498;2023-07-22T06:48:57;48.41;40.74;56.10;;
72415;Laerm;60995;52.154;4.498;2023-07-22T06:51:13;47.22;40.67;63.76;;
72415;Laerm;60995;52.154;4.498;2023-07-22T06:53:29;48.85;41.96;61.83;;
72415;Laerm;60995;52.154;4.498;2023-07-22T06:55:52;47.66;41.80;60.48;;
72415;Laerm;60995;52.154;4.498;2023-07-22T06:58:08;48.32;41.11;64.91;;
72415;Laerm;60995;52.154;4.498;2023-07-22T07:00:24;49.58;42.04;66.75;;
72415;Laerm;60995;52.154;4.498;2023-07-22T07:02:41;49.99;40.83;65.89;;
72415;Laerm;60995;52.154;4.498;2023-07-22T07:04:57;48.39;41.39;61.36;;
72415;Laerm;60995;52.154;4.498;2023-07-22T07:07:14;47.80;41.00;58.91;;
72415;Laerm;60995;52.154;4.498;2023-07-22T07:09:30;50.79;41.10;64.43;;
72415;Laerm;60995;52.154;4.498;2023-07-22T07:11:47;48.00;40.04;65.94;;
72415;Laerm;60995;52.154;4.498;2023-07-22T07:14:06;47.40;41.92;55.18;;
72415;Laerm;60995;52.154;4.498;2023-07-22T07:16:29;49.85;41.75;59.00;;
72415;Laerm;60995;52.154;4.498;2023-07-22T07:18:47;49.25;42.22;65.77;;
72415;Laerm;60995;52.154;4.498;2023-07-22T07:21:03;57.35;42.40;82.94;;
72415;Laerm;60995;52.154;4.498;2023-07-22T07:23:19;47.34;41.02;58.02;;
72415;Laerm;60995;52.154;4.498;2023-07-22T07:25:36;48.28;41.78;61.04;;
72415;Laerm;60995;52.154;4.498;2023-07-22T07:27:52;48.84;42.25;58.70;;
72415;Laerm;60995;52.154;4.498;2023-07-22T07:30:09;48.32;41.05;61.70;;
72415;Laerm;60995;52.154;4.498;2023-07-22T07:32:26;47.93;40.61;54.98;;
72415;Laerm;60995;52.154;4.498;2023-07-22T07:34:42;49.38;42.21;58.26;;
72415;Laerm;60995;52.154;4.498;2023-07-22T07:36:58;51.96;42.53;65.33;;
72415;Laerm;60995;52.154;4.498;2023-07-22T07:39:15;47.77;41.20;58.31;;
72415;Laerm;60995;52.154;4.498;2023-07-22T07:41:31;52.83;42.29;67.11;;
72415;Laerm;60995;52.154;4.498;2023-07-22T07:43:47;49.16;42.05;61.80;;
72415;Laerm;60995;52.154;4.498;2023-07-22T07:46:25;51.67;40.78;68.04;;
72415;Laerm;60995;52.154;4.498;2023-07-22T07:48:42;51.96;42.15;75.64;;
72415;Laerm;60995;52.154;4.498;2023-07-22T07:50:58;49.03;41.88;62.12;;
72415;Laerm;60995;52.154;4.498;2023-07-22T07:53:14;48.99;42.08;59.60;;
72415;Laerm;60995;52.154;4.498;2023-07-22T07:55:30;47.67;39.81;54.72;;
72415;Laerm;60995;52.154;4.498;2023-07-22T07:57:47;49.35;41.33;66.92;;
72415;Laerm;60995;52.154;4.498;2023-07-22T08:00:04;52.06;42.76;67.58;;
72415;Laerm;60995;52.154;4.498;2023-07-22T08:02:20;51.42;40.74;66.80;;
72415;Laerm;60995;52.154;4.498;2023-07-22T08:04:36;48.81;40.07;61.28;;
72415;Laerm;60995;52.154;4.498;2023-07-22T08:06:53;47.86;39.52;60.47;;
72415;Laerm;60995;52.154;4.498;2023-07-22T08:09:09;51.43;41.56;65.41;;
72415;Laerm;60995;52.154;4.498;2023-07-22T08:11:26;49.27;42.93;60.62;;
72415;Laerm;60995;52.154;4.498;2023-07-22T08:13:44;49.05;42.19;57.36;;
72415;Laerm;60995;52.154;4.498;2023-07-22T08:16:10;49.68;42.85;60.76;;
72415;Laerm;60995;52.154;4.498;2023-07-22T08:18:26;50.57;44.15;68.32;;
72415;Laerm;60995;52.154;4.498;2023-07-22T08:20:43;49.92;43.51;57.33;;
72415;Laerm;60995;52.154;4.498;2023-07-22T08:22:59;58.05;46.41;76.57;;
72415;Laerm;60995;52.154;4.498;2023-07-22T08:25:15;66.60;52.97;82.61;;
72415;Laerm;60995;52.154;4.498;2023-07-22T08:27:32;57.67;47.72;66.87;;
72415;Laerm;60995;52.154;4.498;2023-07-22T08:29:48;62.09;53.99;70.65;;
72415;Laerm;60995;52.154;4.498;2023-07-22T08:32:04;56.73;48.38;66.34;;
72415;Laerm;60995;52.154;4.498;2023-07-22T08:34:20;51.54;46.32;60.18;;
72415;Laerm;60995;52.154;4.498;2023-07-22T08:36:37;50.53;44.29;61.31;;
72415;Laerm;60995;52.154;4.498;2023-07-22T08:38:53;49.95;43.95;60.92;;
72415;Laerm;60995;52.154;4.498;2023-07-22T08:41:14;58.17;46.85;73.07;;
72415;Laerm;60995;52.154;4.498;2023-07-22T08:43:37;52.36;45.91;63.55;;
72415;Laerm;60995;52.154;4.498;2023-07-22T08:46:01;51.58;45.23;66.25;;
72415;Laerm;60995;52.154;4.498;2023-07-22T08:48:18;50.89;44.41;58.29;;
72415;Laerm;60995;52.154;4.498;2023-07-22T08:51:26;50.54;43.87;65.41;;
72415;Laerm;60995;52.154;4.498;2023-07-22T08:53:49;50.80;44.74;61.78;;
72415;Laerm;60995;52.154;4.498;2023-07-22T08:56:05;49.50;43.99;60.32;;
72415;Laerm;60995;52.154;4.498;2023-07-22T08:58:24;51.70;44.80;64.42;;
72415;Laerm;60995;52.154;4.498;2023-07-22T09:00:40;50.67;43.91;65.41;;
72415;Laerm;60995;52.154;4.498;2023-07-22T09:02:58;50.07;44.50;64.36;;
72415;Laerm;60995;52.154;4.498;2023-07-22T09:05:18;51.36;43.63;64.53;;
72415;Laerm;60995;52.154;4.498;2023-07-22T09:07:37;50.18;42.79;58.69;;
72415;Laerm;60995;52.154;4.498;2023-07-22T09:09:56;49.73;43.94;60.88;;
72415;Laerm;60995;52.154;4.498;2023-07-22T09:12:14;49.99;44.75;64.56;;
72415;Laerm;60995;52.154;4.498;2023-07-22T09:14:31;49.91;43.50;61.84;;
72415;Laerm;60995;52.154;4.498;2023-07-22T09:16:49;65.35;44.63;78.81;;
72415;Laerm;60995;52.154;4.498;2023-07-22T09:19:06;48.86;42.29;60.07;;
72415;Laerm;60995;52.154;4.498;2023-07-22T09:21:23;49.84;43.36;62.79;;
72415;Laerm;60995;52.154;4.498;2023-07-22T09:23:39;47.94;41.87;54.63;;
72415;Laerm;60995;52.154;4.498;2023-07-22T09:26:11;48.96;41.83;57.03;;
72415;Laerm;60995;52.154;4.498;2023-07-22T09:28:48;49.20;41.24;63.97;;
72415;Laerm;60995;52.154;4.498;2023-07-22T09:31:04;47.63;40.61;54.92;;
72415;Laerm;60995;52.154;4.498;2023-07-22T09:33:22;51.10;41.53;61.43;;
72415;Laerm;60995;52.154;4.498;2023-07-22T09:35:48;49.35;41.08;61.90;;
72415;Laerm;60995;52.154;4.498;2023-07-22T09:38:05;51.69;42.98;69.72;;
72415;Laerm;60995;52.154;4.498;2023-07-22T09:40:28;53.11;42.28;77.11;;
72415;Laerm;60995;52.154;4.498;2023-07-22T09:42:56;48.69;41.27;60.48;;
72415;Laerm;60995;52.154;4.498;2023-07-22T09:45:13;48.87;41.89;59.80;;
72415;Laerm;60995;52.154;4.498;2023-07-22T09:47:43;48.31;40.86;56.26;;
72415;Laerm;60995;52.154;4.498;2023-07-22T09:50:00;49.77;42.60;59.03;;
72415;Laerm;60995;52.154;4.498;2023-07-22T09:52:17;50.31;41.90;65.91;;
72415;Laerm;60995;52.154;4.498;2023-07-22T09:54:33;51.20;43.98;65.42;;
72415;Laerm;60995;52.154;4.498;2023-07-22T09:56:50;50.24;43.83;64.39;;
72415;Laerm;60995;52.154;4.498;2023-07-22T09:59:07;50.31;44.77;56.06;;
72415;Laerm;60995;52.154;4.498;2023-07-22T10:01:25;51.27;44.92;63.94;;
72415;Laerm;60995;52.154;4.498;2023-07-22T10:03:43;51.05;44.59;64.33;;
72415;Laerm;60995;52.154;4.498;2023-07-22T10:06:02;50.17;44.55;64.11;;
72415;Laerm;60995;52.154;4.498;2023-07-22T10:08:23;53.38;43.33;68.06;;
72415;Laerm;60995;52.154;4.498;2023-07-22T10:10:43;50.67;43.90;65.79;;
72415;Laerm;60995;52.154;4.498;2023-07-22T10:13:02;50.04;43.83;64.74;;
72415;Laerm;60995;52.154;4.498;2023-07-22T10:15:18;50.26;44.09;64.51;;
72415;Laerm;60995;52.154;4.498;2023-07-22T10:17:36;50.27;44.68;57.15;;
72415;Laerm;60995;52.154;4.498;2023-07-22T10:19:52;53.74;45.10;73.21;;
72415;Laerm;60995;52.154;4.498;2023-07-22T10:22:09;48.89;43.24;58.11;;
72415;Laerm;60995;52.154;4.498;2023-07-22T10:24:28;49.02;43.16;63.74;;
72415;Laerm;60995;52.154;4.498;2023-07-22T10:26:44;49.78;43.64;57.88;;
72415;Laerm;60995;52.154;4.498;2023-07-22T10:29:02;49.87;44.23;56.46;;
72415;Laerm;60995;52.154;4.498;2023-07-22T10:31:18;49.47;43.58;61.53;;
72415;Laerm;60995;52.154;4.498;2023-07-22T10:33:35;50.29;45.32;61.62;;
72415;Laerm;60995;52.154;4.498;2023-07-22T10:36:06;51.04;43.44;68.67;;
72415;Laerm;60995;52.154;4.498;2023-07-22T10:38:25;50.75;44.64;72.05;;
72415;Laerm;60995;52.154;4.498;2023-07-22T10:40:49;51.64;43.81;65.55;;
72415;Laerm;60995;52.154;4.498;2023-07-22T10:43:06;49.22;42.77;60.13;;
72415;Laerm;60995;52.154;4.498;2023-07-22T10:45:28;49.31;43.56;64.97;;
72415;Laerm;60995;52.154;4.498;2023-07-22T10:50:21;49.20;43.72;60.04;;
72415;Laerm;60995;52.154;4.498;2023-07-22T10:52:42;49.61;43.51;65.32;;
72415;Laerm;60995;52.154;4.498;2023-07-22T10:55:00;49.81;42.18;70.97;;
72415;Laerm;60995;52.154;4.498;2023-07-22T10:59:33;49.80;43.56;69.14;;
72415;Laerm;60995;52.154;4.498;2023-07-22T11:01:53;50.01;43.64;61.76;;
72415;Laerm;60995;52.154;4.498;2023-07-22T11:04:21;50.24;42.05;63.40;;
72415;Laerm;60995;52.154;4.498;2023-07-22T11:09:03;49.48;42.73;56.64;;
72415;Laerm;60995;52.154;4.498;2023-07-22T11:11:19;52.75;43.23;64.76;;
72415;Laerm;60995;52.154;4.498;2023-07-22T11:13:39;49.23;41.14;58.50;;
72415;Laerm;60995;52.154;4.498;2023-07-22T11:16:00;50.05;43.77;56.83;;
72415;Laerm;60995;52.154;4.498;2023-07-22T11:18:17;50.59;42.89;68.05;;
72415;Laerm;60995;52.154;4.498;2023-07-22T11:20:33;55.74;43.67;72.55;;
72415;Laerm;60995;52.154;4.498;2023-07-22T11:22:50;52.53;44.99;74.69;;
72415;Laerm;60995;52.154;4.498;2023-07-22T11:25:07;51.04;43.30;65.30;;
72415;Laerm;60995;52.154;4.498;2023-07-22T11:27:24;53.55;42.80;73.29;;
72415;Laerm;60995;52.154;4.498;2023-07-22T11:29:41;54.91;44.64;71.96;;
72415;Laerm;60995;52.154;4.498;2023-07-22T11:31:57;51.10;43.78;65.43;;
72415;Laerm;60995;52.154;4.498;2023-07-22T11:34:17;48.69;42.23;57.03;;
72415;Laerm;60995;52.154;4.498;2023-07-22T11:36:34;59.03;44.78;74.59;;
72415;Laerm;60995;52.154;4.498;2023-07-22T11:38:52;50.19;42.78;60.81;;
72415;Laerm;60995;52.154;4.498;2023-07-22T11:41:08;51.00;43.93;57.25;;
72415;Laerm;60995;52.154;4.498;2023-07-22T11:43:27;50.85;44.07;65.92;;
72415;Laerm;60995;52.154;4.498;2023-07-22T11:45:43;52.31;43.77;74.17;;
72415;Laerm;60995;52.154;4.498;2023-07-22T11:48:01;50.83;43.28;58.77;;
72415;Laerm;60995;52.154;4.498;2023-07-22T11:50:33;48.64;42.65;58.80;;
72415;Laerm;60995;52.154;4.498;2023-07-22T11:52:51;49.56;43.57;57.17;;
72415;Laerm;60995;52.154;4.498;2023-07-22T11:55:07;50.32;44.04;66.84;;
72415;Laerm;60995;52.154;4.498;2023-07-22T11:57:24;50.05;43.09;63.94;;
72415;Laerm;60995;52.154;4.498;2023-07-22T11:59:48;50.27;43.32;65.72;;
72415;Laerm;60995;52.154;4.498;2023-07-22T12:02:05;49.87;41.76;70.16;;
72415;Laerm;60995;52.154;4.498;2023-07-22T12:04:23;51.71;43.47;68.60;;
72415;Laerm;60995;52.154;4.498;2023-07-22T12:06:41;53.62;46.14;75.99;;
72415;Laerm;60995;52.154;4.498;2023-07-22T12:08:57;50.09;43.06;62.26;;
72415;Laerm;60995;52.154;4.498;2023-07-22T12:11:22;48.69;43.04;60.21;;
72415;Laerm;60995;52.154;4.498;2023-07-22T12:13:38;49.41;41.78;67.31;;
72415;Laerm;60995;52.154;4.498;2023-07-22T12:16:02;48.79;42.56;56.42;;
72415;Laerm;60995;52.154;4.498;2023-07-22T12:18:18;49.70;41.04;66.65;;
72415;Laerm;60995;52.154;4.498;2023-07-22T12:20:35;49.47;43.14;57.41;;
72415;Laerm;60995;52.154;4.498;2023-07-22T12:22:55;50.95;43.11;65.84;;
72415;Laerm;60995;52.154;4.498;2023-07-22T12:25:11;53.47;44.75;68.28;;
72415;Laerm;60995;52.154;4.498;2023-07-22T12:27:28;50.77;41.17;77.86;;
72415;Laerm;60995;52.154;4.498;2023-07-22T12:29:44;49.56;42.71;66.72;;
72415;Laerm;60995;52.154;4.498;2023-07-22T12:32:00;49.19;42.70;55.36;;
72415;Laerm;60995;52.154;4.498;2023-07-22T12:34:16;48.82;41.54;64.40;;
72415;Laerm;60995;52.154;4.498;2023-07-22T12:36:33;48.81;42.01;60.64;;
72415;Laerm;60995;52.154;4.498;2023-07-22T12:38:49;49.09;42.38;59.68;;
72415;Laerm;60995;52.154;4.498;2023-07-22T12:41:05;50.48;42.45;72.03;;
72415;Laerm;60995;52.154;4.498;2023-07-22T12:43:21;49.85;43.93;57.34;;
72415;Laerm;60995;52.154;4.498;2023-07-22T12:45:38;49.29;42.68;63.91;;
72415;Laerm;60995;52.154;4.498;2023-07-22T12:47:54;48.42;42.77;56.39;;
72415;Laerm;60995;52.154;4.498;2023-07-22T12:50:10;52.23;43.57;72.14;;
72415;Laerm;60995;52.154;4.498;2023-07-22T12:52:26;48.97;42.54;69.10;;
72415;Laerm;60995;52.154;4.498;2023-07-22T12:54:43;49.49;43.41;59.00;;
72415;Laerm;60995;52.154;4.498;2023-07-22T12:56:59;49.09;41.37;63.17;;